sensor_id;sensor_type;location;lat;lon;timestamp;P1;durP1;ratioP1;P2;durP2;ratioP2
12650;SDS011;6390;49.400;8.670;2023-05-16T00:00:53;9.68;;;7.75;;
12650;SDS011;6390;49.400;8.670;2023-05-16T00:03:19;11.45;;;8.80;;
12650;SDS011;6390;49.400;8.670;2023-05-16T00:05:46;9.88;;;8.52;;
12650;SDS011;6390;49.400;8.670;2023-05-16T00:08:12;10.55;;;8.63;;
12650;SDS011;6390;49.400;8.670;2023-05-16T00:10:38;11.50;;;9.05;;
12650;SDS011;6390;49.400;8.670;2023-05-16T00:13:04;10.25;;;9.10;;
12650;SDS011;6390;49.400;8.670;2023-05-16T00:15:31;12.68;;;10.60;;
12650;SDS011;6390;49.400;8.670;2023-05-16T00:17:57;10.68;;;9.25;;
12650;SDS011;6390;49.400;8.670;2023-05-16T00:20:24;12.43;;;10.48;;
12650;SDS011;6390;49.400;8.670;2023-05-16T00:22:52;12.23;;;9.75;;
12650;SDS011;6390;49.400;8.670;2023-05-16T00:25:18;13.55;;;10.60;;
12650;SDS011;6390;49.400;8.670;2023-05-16T00:27:45;11.55;;;10.15;;
12650;SDS011;6390;49.400;8.670;2023-05-16T00:30:11;13.82;;;10.75;;
12650;SDS011;6390;49.400;8.670;2023-05-16T00:32:38;15.55;;;10.55;;
12650;SDS011;6390;49.400;8.670;2023-05-16T00:35:04;12.82;;;10.85;;
12650;SDS011;6390;49.400;8.670;2023-05-16T00:37:31;13.52;;;10.80;;
12650;SDS011;6390;49.400;8.670;2023-05-16T00:39:57;13.95;;;10.90;;
12650;SDS011;6390;49.400;8.670;2023-05-16T00:42:24;12.32;;;10.85;;
12650;SDS011;6390;49.400;8.670;2023-05-16T00:44:51;14.57;;;11.35;;
12650;SDS011;6390;49.400;8.670;2023-05-16T00:47:17;14.07;;;11.23;;
12650;SDS011;6390;49.400;8.670;2023-05-16T00:49:43;14.65;;;10.82;;
12650;SDS011;6390;49.400;8.670;2023-05-16T00:52:09;14.07;;;10.88;;
12650;SDS011;6390;49.400;8.670;2023-05-16T00:54:36;13.85;;;11.20;;
12650;SDS011;6390;49.400;8.670;2023-05-16T00:57:02;13.07;;;10.45;;
12650;SDS011;6390;49.400;8.670;2023-05-16T00:59:30;13.90;;;10.18;;
12650;SDS011;6390;49.400;8.670;2023-05-16T01:01:57;12.73;;;9.88;;
12650;SDS011;6390;49.400;8.670;2023-05-16T01:04:23;13.30;;;10.57;;
12650;SDS011;6390;49.400;8.670;2023-05-16T01:06:49;13.13;;;10.48;;
12650;SDS011;6390;49.400;8.670;2023-05-16T01:09:16;13.93;;;10.55;;
12650;SDS011;6390;49.400;8.670;2023-05-16T01:11:50;15.02;;;11.27;;
12650;SDS011;6390;49.400;8.670;2023-05-16T01:17:19;12.48;;;10.18;;
12650;SDS011;6390;49.400;8.670;2023-05-16T01:20:19;13.48;;;10.88;;
12650;SDS011;6390;49.400;8.670;2023-05-16T01:23:17;12.52;;;10.30;;
12650;SDS011;6390;49.400;8.670;2023-05-16T01:28:43;14.20;;;10.77;;
12650;SDS011;6390;49.400;8.670;2023-05-16T01:31:10;13.05;;;10.40;;
12650;SDS011;6390;49.400;8.670;2023-05-16T01:33:37;13.70;;;11.25;;
12650;SDS011;6390;49.400;8.670;2023-05-16T01:42:03;15.00;;;10.82;;
12650;SDS011;6390;49.400;8.670;2023-05-16T01:44:39;12.50;;;9.98;;
12650;SDS011;6390;49.400;8.670;2023-05-16T01:47:15;13.90;;;10.15;;
12650;SDS011;6390;49.400;8.670;2023-05-16T01:52:32;11.82;;;9.55;;
12650;SDS011;6390;49.400;8.670;2023-05-16T01:55:03;13.98;;;10.95;;
12650;SDS011;6390;49.400;8.670;2023-05-16T01:57:30;13.05;;;9.90;;
12650;SDS011;6390;49.400;8.670;2023-05-16T01:59:57;12.38;;;9.63;;
12650;SDS011;6390;49.400;8.670;2023-05-16T02:02:23;13.40;;;10.30;;
12650;SDS011;6390;49.400;8.670;2023-05-16T02:04:49;12.80;;;10.70;;
12650;SDS011;6390;49.400;8.670;2023-05-16T02:07:15;13.40;;;9.70;;
12650;SDS011;6390;49.400;8.670;2023-05-16T02:09:42;13.65;;;9.88;;
12650;SDS011;6390;49.400;8.670;2023-05-16T02:12:08;12.00;;;9.82;;
12650;SDS011;6390;49.400;8.670;2023-05-16T02:14:34;12.30;;;9.55;;
12650;SDS011;6390;49.400;8.670;2023-05-16T02:17:00;11.85;;;10.07;;
12650;SDS011;6390;49.400;8.670;2023-05-16T02:19:26;14.05;;;9.75;;
12650;SDS011;6390;49.400;8.670;2023-05-16T02:21:52;11.95;;;10.05;;
12650;SDS011;6390;49.400;8.670;2023-05-16T02:24:18;12.50;;;9.77;;
12650;SDS011;6390;49.400;8.670;2023-05-16T02:26:45;12.10;;;9.52;;
12650;SDS011;6390;49.400;8.670;2023-05-16T02:29:11;12.48;;;9.32;;
12650;SDS011;6390;49.400;8.670;2023-05-16T02:31:37;9.88;;;8.38;;
12650;SDS011;6390;49.400;8.670;2023-05-16T02:34:03;12.00;;;9.20;;
12650;SDS011;6390;49.400;8.670;2023-05-16T02:36:29;9.40;;;7.80;;
12650;SDS011;6390;49.400;8.670;2023-05-16T02:38:55;10.50;;;8.48;;
12650;SDS011;6390;49.400;8.670;2023-05-16T02:41:22;8.93;;;7.55;;
12650;SDS011;6390;49.400;8.670;2023-05-16T02:43:48;10.00;;;7.97;;
12650;SDS011;6390;49.400;8.670;2023-05-16T02:48:51;9.68;;;7.38;;
12650;SDS011;6390;49.400;8.670;2023-05-16T02:51:22;9.82;;;8.27;;
12650;SDS011;6390;49.400;8.670;2023-05-16T02:53:51;8.35;;;7.18;;
12650;SDS011;6390;49.400;8.670;2023-05-16T02:56:17;9.52;;;8.27;;
12650;SDS011;6390;49.400;8.670;2023-05-16T02:58:46;10.77;;;7.88;;
12650;SDS011;6390;49.400;8.670;2023-05-16T03:01:13;10.45;;;8.45;;
12650;SDS011;6390;49.400;8.670;2023-05-16T03:03:40;9.20;;;7.13;;
12650;SDS011;6390;49.400;8.670;2023-05-16T03:06:06;10.25;;;7.57;;
12650;SDS011;6390;49.400;8.670;2023-05-16T03:08:32;9.35;;;7.85;;
12650;SDS011;6390;49.400;8.670;2023-05-16T03:10:59;8.95;;;7.30;;
12650;SDS011;6390;49.400;8.670;2023-05-16T03:13:25;7.72;;;6.82;;
12650;SDS011;6390;49.400;8.670;2023-05-16T03:15:52;9.88;;;6.97;;
12650;SDS011;6390;49.400;8.670;2023-05-16T03:18:18;7.57;;;6.78;;
12650;SDS011;6390;49.400;8.670;2023-05-16T03:20:45;9.50;;;7.32;;
12650;SDS011;6390;49.400;8.670;2023-05-16T03:23:11;11.05;;;7.00;;
12650;SDS011;6390;49.400;8.670;2023-05-16T03:25:37;8.45;;;7.20;;
12650;SDS011;6390;49.400;8.670;2023-05-16T03:28:06;7.97;;;6.78;;
12650;SDS011;6390;49.400;8.670;2023-05-16T03:30:33;7.90;;;6.47;;
12650;SDS011;6390;49.400;8.670;2023-05-16T03:32:59;7.78;;;6.05;;
12650;SDS011;6390;49.400;8.670;2023-05-16T03:35:26;7.47;;;6.30;;
12650;SDS011;6390;49.400;8.670;2023-05-16T03:37:53;9.05;;;6.40;;
12650;SDS011;6390;49.400;8.670;2023-05-16T03:40:19;7.15;;;6.38;;
12650;SDS011;6390;49.400;8.670;2023-05-16T03:42:46;8.32;;;6.22;;
12650;SDS011;6390;49.400;8.670;2023-05-16T03:45:12;6.70;;;5.78;;
12650;SDS011;6390;49.400;8.670;2023-05-16T03:47:38;8.13;;;6.38;;
12650;SDS011;6390;49.400;8.670;2023-05-16T03:50:04;8.02;;;6.47;;
12650;SDS011;6390;49.400;8.670;2023-05-16T03:52:32;9.25;;;6.45;;
12650;SDS011;6390;49.400;8.670;2023-05-16T03:54:58;8.55;;;6.68;;
12650;SDS011;6390;49.400;8.670;2023-05-16T03:57:26;7.75;;;6.13;;
12650;SDS011;6390;49.400;8.670;2023-05-16T03:59:52;9.35;;;6.72;;
12650;SDS011;6390;49.400;8.670;2023-05-16T04:02:18;10.60;;;6.47;;
12650;SDS011;6390;49.400;8.670;2023-05-16T04:04:44;11.30;;;7.03;;
12650;SDS011;6390;49.400;8.670;2023-05-16T04:07:10;9.18;;;6.82;;
12650;SDS011;6390;49.400;8.670;2023-05-16T04:09:36;9.23;;;6.82;;
12650;SDS011;6390;49.400;8.670;2023-05-16T04:12:03;8.05;;;6.40;;
12650;SDS011;6390;49.400;8.670;2023-05-16T04:14:29;8.82;;;6.32;;
12650;SDS011;6390;49.400;8.670;2023-05-16T04:16:56;9.02;;;6.63;;
12650;SDS011;6390;49.400;8.670;2023-05-16T04:19:22;9.95;;;6.53;;
12650;SDS011;6390;49.400;8.670;2023-05-16T04:21:48;8.65;;;6.95;;
12650;SDS011;6390;49.400;8.670;2023-05-16T04:24:14;8.27;;;5.57;;
12650;SDS011;6390;49.400;8.670;2023-05-16T04:26:40;9.15;;;6.22;;
12650;SDS011;6390;49.400;8.670;2023-05-16T04:29:06;9.07;;;6.47;;
12650;SDS011;6390;49.400;8.670;2023-05-16T04:31:32;7.88;;;6.70;;
12650;SDS011;6390;49.400;8.670;2023-05-16T04:33:58;8.18;;;6.22;;
12650;SDS011;6390;49.400;8.670;2023-05-16T04:36:25;8.15;;;6.18;;
12650;SDS011;6390;49.400;8.670;2023-05-16T04:38:54;7.88;;;6.03;;
12650;SDS011;6390;49.400;8.670;2023-05-16T04:41:20;9.32;;;6.68;;
12650;SDS011;6390;49.400;8.670;2023-05-16T04:43:47;7.80;;;6.10;;
12650;SDS011;6390;49.400;8.670;2023-05-16T04:46:14;9.35;;;6.22;;
12650;SDS011;6390;49.400;8.670;2023-05-16T04:48:40;7.80;;;6.50;;
12650;SDS011;6390;49.400;8.670;2023-05-16T04:51:06;6.75;;;5.95;;
12650;SDS011;6390;49.400;8.670;2023-05-16T04:53:32;7.63;;;5.85;;
12650;SDS011;6390;49.400;8.670;2023-05-16T04:55:59;9.80;;;6.53;;
12650;SDS011;6390;49.400;8.670;2023-05-16T04:58:25;10.20;;;6.47;;
12650;SDS011;6390;49.400;8.670;2023-05-16T05:00:51;9.13;;;6.38;;
12650;SDS011;6390;49.400;8.670;2023-05-16T05:03:18;6.95;;;5.80;;
12650;SDS011;6390;49.400;8.670;2023-05-16T05:05:44;8.05;;;5.72;;
12650;SDS011;6390;49.400;8.670;2023-05-16T05:08:10;10.32;;;5.95;;
12650;SDS011;6390;49.400;8.670;2023-05-16T05:10:36;6.95;;;5.78;;
12650;SDS011;6390;49.400;8.670;2023-05-16T05:13:02;7.90;;;5.82;;
12650;SDS011;6390;49.400;8.670;2023-05-16T05:15:29;6.28;;;4.88;;
12650;SDS011;6390;49.400;8.670;2023-05-16T05:17:55;6.22;;;4.78;;
12650;SDS011;6390;49.400;8.670;2023-05-16T05:20:21;6.70;;;4.88;;
12650;SDS011;6390;49.400;8.670;2023-05-16T05:22:47;7.15;;;4.18;;
12650;SDS011;6390;49.400;8.670;2023-05-16T05:25:13;5.53;;;4.20;;
12650;SDS011;6390;49.400;8.670;2023-05-16T05:27:40;5.25;;;4.00;;
12650;SDS011;6390;49.400;8.670;2023-05-16T05:30:06;5.00;;;3.72;;
12650;SDS011;6390;49.400;8.670;2023-05-16T05:32:33;6.22;;;3.58;;
12650;SDS011;6390;49.400;8.670;2023-05-16T05:34:59;4.80;;;3.40;;
12650;SDS011;6390;49.400;8.670;2023-05-16T05:37:25;5.65;;;3.22;;
12650;SDS011;6390;49.400;8.670;2023-05-16T05:39:51;4.75;;;3.20;;
12650;SDS011;6390;49.400;8.670;2023-05-16T05:42:18;4.82;;;2.97;;
12650;SDS011;6390;49.400;8.670;2023-05-16T05:44:44;3.53;;;2.95;;
12650;SDS011;6390;49.400;8.670;2023-05-16T05:47:10;3.63;;;2.70;;
12650;SDS011;6390;49.400;8.670;2023-05-16T05:49:36;3.05;;;2.60;;
12650;SDS011;6390;49.400;8.670;2023-05-16T05:52:02;3.08;;;2.58;;
12650;SDS011;6390;49.400;8.670;2023-05-16T05:54:29;2.88;;;2.47;;
12650;SDS011;6390;49.400;8.670;2023-05-16T05:56:58;2.60;;;2.30;;
12650;SDS011;6390;49.400;8.670;2023-05-16T05:59:24;3.85;;;2.08;;
12650;SDS011;6390;49.400;8.670;2023-05-16T06:01:51;2.72;;;2.10;;
12650;SDS011;6390;49.400;8.670;2023-05-16T06:04:18;2.10;;;1.88;;
12650;SDS011;6390;49.400;8.670;2023-05-16T06:06:44;1.83;;;1.73;;
12650;SDS011;6390;49.400;8.670;2023-05-16T06:09:10;1.70;;;1.60;;
12650;SDS011;6390;49.400;8.670;2023-05-16T06:11:38;1.50;;;1.40;;
12650;SDS011;6390;49.400;8.670;2023-05-16T06:14:05;1.45;;;1.30;;
12650;SDS011;6390;49.400;8.670;2023-05-16T06:16:31;1.60;;;1.45;;
12650;SDS011;6390;49.400;8.670;2023-05-16T06:18:57;2.40;;;1.50;;
12650;SDS011;6390;49.400;8.670;2023-05-16T06:21:24;2.72;;;1.20;;
12650;SDS011;6390;49.400;8.670;2023-05-16T06:23:50;1.35;;;1.25;;
12650;SDS011;6390;49.400;8.670;2023-05-16T06:26:16;1.83;;;1.10;;
12650;SDS011;6390;49.400;8.670;2023-05-16T06:28:42;1.50;;;1.20;;
12650;SDS011;6390;49.400;8.670;2023-05-16T06:31:08;1.70;;;1.05;;
12650;SDS011;6390;49.400;8.670;2023-05-16T06:33:34;1.30;;;1.08;;
12650;SDS011;6390;49.400;8.670;2023-05-16T06:36:00;1.13;;;1.02;;
12650;SDS011;6390;49.400;8.670;2023-05-16T06:38:26;0.80;;;0.80;;
12650;SDS011;6390;49.400;8.670;2023-05-16T06:40:52;1.05;;;0.93;;
12650;SDS011;6390;49.400;8.670;2023-05-16T06:43:18;1.33;;;1.10;;
12650;SDS011;6390;49.400;8.670;2023-05-16T06:45:45;0.90;;;0.90;;
12650;SDS011;6390;49.400;8.670;2023-05-16T06:48:12;1.00;;;0.90;;
12650;SDS011;6390;49.400;8.670;2023-05-16T06:50:41;0.90;;;0.90;;
12650;SDS011;6390;49.400;8.670;2023-05-16T06:53:07;0.77;;;0.77;;
12650;SDS011;6390;49.400;8.670;2023-05-16T06:55:35;1.00;;;0.90;;
12650;SDS011;6390;49.400;8.670;2023-05-16T06:58:02;1.02;;;0.90;;
12650;SDS011;6390;49.400;8.670;2023-05-16T07:00:28;0.90;;;0.90;;
12650;SDS011;6390;49.400;8.670;2023-05-16T07:02:54;0.90;;;0.90;;
12650;SDS011;6390;49.400;8.670;2023-05-16T07:05:20;1.40;;;0.80;;
12650;SDS011;6390;49.400;8.670;2023-05-16T07:07:46;0.85;;;0.85;;
12650;SDS011;6390;49.400;8.670;2023-05-16T07:10:13;0.90;;;0.90;;
12650;SDS011;6390;49.400;8.670;2023-05-16T07:12:43;0.93;;;0.80;;
12650;SDS011;6390;49.400;8.670;2023-05-16T07:15:09;0.88;;;0.70;;
12650;SDS011;6390;49.400;8.670;2023-05-16T07:17:36;0.75;;;0.75;;
12650;SDS011;6390;49.400;8.670;2023-05-16T07:20:03;0.80;;;0.80;;
12650;SDS011;6390;49.400;8.670;2023-05-16T07:22:30;0.70;;;0.70;;
12650;SDS011;6390;49.400;8.670;2023-05-16T07:24:56;0.63;;;0.63;;
12650;SDS011;6390;49.400;8.670;2023-05-16T07:27:24;0.88;;;0.88;;
12650;SDS011;6390;49.400;8.670;2023-05-16T07:29:52;0.80;;;0.80;;
12650;SDS011;6390;49.400;8.670;2023-05-16T07:32:18;1.00;;;0.93;;
12650;SDS011;6390;49.400;8.670;2023-05-16T07:34:44;0.80;;;0.80;;
12650;SDS011;6390;49.400;8.670;2023-05-16T07:37:10;0.77;;;0.77;;
12650;SDS011;6390;49.400;8.670;2023-05-16T07:39:38;0.80;;;0.80;;
12650;SDS011;6390;49.400;8.670;2023-05-16T07:42:07;1.63;;;0.77;;
12650;SDS011;6390;49.400;8.670;2023-05-16T07:44:34;1.40;;;0.90;;
12650;SDS011;6390;49.400;8.670;2023-05-16T07:47:00;0.60;;;0.60;;
12650;SDS011;6390;49.400;8.670;2023-05-16T07:49:26;0.70;;;0.70;;
12650;SDS011;6390;49.400;8.670;2023-05-16T07:51:52;0.73;;;0.73;;
12650;SDS011;6390;49.400;8.670;2023-05-16T07:54:18;0.73;;;0.63;;
12650;SDS011;6390;49.400;8.670;2023-05-16T07:56:45;0.50;;;0.50;;
12650;SDS011;6390;49.400;8.670;2023-05-16T07:59:11;0.73;;;0.73;;
12650;SDS011;6390;49.400;8.670;2023-05-16T08:01:37;2.63;;;0.80;;
12650;SDS011;6390;49.400;8.670;2023-05-16T08:04:03;1.38;;;0.60;;
12650;SDS011;6390;49.400;8.670;2023-05-16T08:06:29;0.70;;;0.70;;
12650;SDS011;6390;49.400;8.670;2023-05-16T08:08:55;0.70;;;0.70;;
12650;SDS011;6390;49.400;8.670;2023-05-16T08:11:21;0.93;;;0.65;;
12650;SDS011;6390;49.400;8.670;2023-05-16T08:13:48;0.63;;;0.63;;
12650;SDS011;6390;49.400;8.670;2023-05-16T08:16:14;0.80;;;0.80;;
12650;SDS011;6390;49.400;8.670;2023-05-16T08:18:40;1.10;;;1.00;;
12650;SDS011;6390;49.400;8.670;2023-05-16T08:21:07;0.80;;;0.80;;
12650;SDS011;6390;49.400;8.670;2023-05-16T08:23:33;0.80;;;0.80;;
12650;SDS011;6390;49.400;8.670;2023-05-16T08:26:00;0.80;;;0.80;;
12650;SDS011;6390;49.400;8.670;2023-05-16T08:28:27;0.68;;;0.68;;
12650;SDS011;6390;49.400;8.670;2023-05-16T08:30:53;0.85;;;0.80;;
12650;SDS011;6390;49.400;8.670;2023-05-16T08:33:20;1.08;;;0.70;;
12650;SDS011;6390;49.400;8.670;2023-05-16T08:35:46;0.85;;;0.80;;
12650;SDS011;6390;49.400;8.670;2023-05-16T08:38:16;0.70;;;0.70;;
12650;SDS011;6390;49.400;8.670;2023-05-16T08:40:42;0.80;;;0.80;;
12650;SDS011;6390;49.400;8.670;2023-05-16T08:43:09;0.63;;;0.63;;
12650;SDS011;6390;49.400;8.670;2023-05-16T08:45:35;0.65;;;0.65;;
12650;SDS011;6390;49.400;8.670;2023-05-16T08:48:01;0.68;;;0.68;;
12650;SDS011;6390;49.400;8.670;2023-05-16T08:50:30;0.75;;;0.65;;
12650;SDS011;6390;49.400;8.670;2023-05-16T08:52:57;0.73;;;0.70;;
12650;SDS011;6390;49.400;8.670;2023-05-16T08:55:30;0.65;;;0.65;;
12650;SDS011;6390;49.400;8.670;2023-05-16T08:57:56;0.43;;;0.43;;
12650;SDS011;6390;49.400;8.670;2023-05-16T09:00:22;0.60;;;0.60;;
12650;SDS011;6390;49.400;8.670;2023-05-16T09:02:49;0.95;;;0.35;;
12650;SDS011;6390;49.400;8.670;2023-05-16T09:05:15;0.30;;;0.30;;
12650;SDS011;6390;49.400;8.670;2023-05-16T09:07:42;0.30;;;0.30;;
12650;SDS011;6390;49.400;8.670;2023-05-16T09:10:09;0.28;;;0.28;;
12650;SDS011;6390;49.400;8.670;2023-05-16T09:12:36;0.40;;;0.40;;
12650;SDS011;6390;49.400;8.670;2023-05-16T09:15:04;0.80;;;0.47;;
12650;SDS011;6390;49.400;8.670;2023-05-16T09:17:42;0.45;;;0.45;;
12650;SDS011;6390;49.400;8.670;2023-05-16T09:20:11;0.70;;;0.50;;
12650;SDS011;6390;49.400;8.670;2023-05-16T09:22:52;0.57;;;0.50;;
12650;SDS011;6390;49.400;8.670;2023-05-16T09:25:20;0.40;;;0.40;;
12650;SDS011;6390;49.400;8.670;2023-05-16T09:27:51;0.60;;;0.60;;
12650;SDS011;6390;49.400;8.670;2023-05-16T09:30:22;0.30;;;0.30;;
12650;SDS011;6390;49.400;8.670;2023-05-16T09:32:57;0.38;;;0.25;;
12650;SDS011;6390;49.400;8.670;2023-05-16T09:35:24;1.90;;;0.40;;
12650;SDS011;6390;49.400;8.670;2023-05-16T09:37:51;0.20;;;0.20;;
12650;SDS011;6390;49.400;8.670;2023-05-16T09:40:19;1.00;;;0.30;;
12650;SDS011;6390;49.400;8.670;2023-05-16T09:42:47;0.35;;;0.30;;
12650;SDS011;6390;49.400;8.670;2023-05-16T09:45:30;0.40;;;0.40;;
12650;SDS011;6390;49.400;8.670;2023-05-16T09:48:03;0.20;;;0.20;;
12650;SDS011;6390;49.400;8.670;2023-05-16T09:50:33;0.57;;;0.30;;
12650;SDS011;6390;49.400;8.670;2023-05-16T09:53:00;0.25;;;0.25;;
12650;SDS011;6390;49.400;8.670;2023-05-16T09:55:27;0.38;;;0.38;;
12650;SDS011;6390;49.400;8.670;2023-05-16T09:57:54;0.32;;;0.32;;
12650;SDS011;6390;49.400;8.670;2023-05-16T10:00:21;0.22;;;0.22;;
12650;SDS011;6390;49.400;8.670;2023-05-16T10:02:47;0.55;;;0.50;;
12650;SDS011;6390;49.400;8.670;2023-05-16T10:05:14;0.55;;;0.50;;
12650;SDS011;6390;49.400;8.670;2023-05-16T10:07:41;0.47;;;0.47;;
12650;SDS011;6390;49.400;8.670;2023-05-16T10:10:08;0.28;;;0.28;;
12650;SDS011;6390;49.400;8.670;2023-05-16T10:12:35;0.40;;;0.40;;
12650;SDS011;6390;49.400;8.670;2023-05-16T10:15:02;0.50;;;0.50;;
12650;SDS011;6390;49.400;8.670;2023-05-16T10:17:31;0.70;;;0.43;;
12650;SDS011;6390;49.400;8.670;2023-05-16T10:20:00;0.20;;;0.20;;
12650;SDS011;6390;49.400;8.670;2023-05-16T10:22:30;0.40;;;0.40;;
12650;SDS011;6390;49.400;8.670;2023-05-16T10:25:06;0.40;;;0.40;;
12650;SDS011;6390;49.400;8.670;2023-05-16T10:27:37;0.50;;;0.50;;
12650;SDS011;6390;49.400;8.670;2023-05-16T10:30:05;0.52;;;0.52;;
12650;SDS011;6390;49.400;8.670;2023-05-16T10:32:33;1.05;;;0.40;;
12650;SDS011;6390;49.400;8.670;2023-05-16T10:35:00;0.30;;;0.30;;
12650;SDS011;6390;49.400;8.670;2023-05-16T10:37:27;0.32;;;0.25;;
12650;SDS011;6390;49.400;8.670;2023-05-16T10:39:55;0.90;;;0.52;;
12650;SDS011;6390;49.400;8.670;2023-05-16T10:42:23;0.40;;;0.40;;
12650;SDS011;6390;49.400;8.670;2023-05-16T10:44:52;0.35;;;0.32;;
12650;SDS011;6390;49.400;8.670;2023-05-16T10:47:20;0.50;;;0.50;;
12650;SDS011;6390;49.400;8.670;2023-05-16T10:49:46;0.60;;;0.60;;
12650;SDS011;6390;49.400;8.670;2023-05-16T10:52:13;1.17;;;0.60;;
12650;SDS011;6390;49.400;8.670;2023-05-16T10:54:42;2.42;;;0.63;;
12650;SDS011;6390;49.400;8.670;2023-05-16T10:57:17;0.60;;;0.57;;
12650;SDS011;6390;49.400;8.670;2023-05-16T10:59:47;0.40;;;0.40;;
12650;SDS011;6390;49.400;8.670;2023-05-16T11:02:28;1.85;;;0.77;;
12650;SDS011;6390;49.400;8.670;2023-05-16T11:04:59;0.60;;;0.60;;
12650;SDS011;6390;49.400;8.670;2023-05-16T11:07:31;0.80;;;0.80;;
12650;SDS011;6390;49.400;8.670;2023-05-16T11:10:09;0.55;;;0.45;;
12650;SDS011;6390;49.400;8.670;2023-05-16T11:12:44;0.50;;;0.45;;
12650;SDS011;6390;49.400;8.670;2023-05-16T11:15:16;0.70;;;0.70;;
12650;SDS011;6390;49.400;8.670;2023-05-16T11:17:47;1.10;;;0.70;;
12650;SDS011;6390;49.400;8.670;2023-05-16T11:20:28;0.60;;;0.60;;
12650;SDS011;6390;49.400;8.670;2023-05-16T11:23:30;0.68;;;0.50;;
12650;SDS011;6390;49.400;8.670;2023-05-16T11:25:51;1.00;;;0.80;;
12650;SDS011;6390;49.400;8.670;2023-05-16T11:28:25;0.80;;;0.80;;
12650;SDS011;6390;49.400;8.670;2023-05-16T11:30:53;1.77;;;0.90;;
12650;SDS011;6390;49.400;8.670;2023-05-16T11:33:22;0.93;;;0.77;;
12650;SDS011;6390;49.400;8.670;2023-05-16T11:36:05;0.82;;;0.70;;
12650;SDS011;6390;49.400;8.670;2023-05-16T11:38:33;2.72;;;0.80;;
12650;SDS011;6390;49.400;8.670;2023-05-16T11:41:06;0.80;;;0.80;;
12650;SDS011;6390;49.400;8.670;2023-05-16T11:43:37;1.25;;;0.80;;
12650;SDS011;6390;49.400;8.670;2023-05-16T11:46:05;1.38;;;0.98;;
12650;SDS011;6390;49.400;8.670;2023-05-16T11:48:31;0.80;;;0.80;;
12650;SDS011;6390;49.400;8.670;2023-05-16T11:50:58;1.05;;;0.70;;
12650;SDS011;6390;49.400;8.670;2023-05-16T11:53:24;1.10;;;0.77;;
12650;SDS011;6390;49.400;8.670;2023-05-16T11:55:52;1.90;;;1.00;;
12650;SDS011;6390;49.400;8.670;2023-05-16T11:58:18;1.15;;;0.80;;
12650;SDS011;6390;49.400;8.670;2023-05-16T12:00:49;4.00;;;1.00;;
12650;SDS011;6390;49.400;8.670;2023-05-16T12:03:16;2.03;;;1.00;;
12650;SDS011;6390;49.400;8.670;2023-05-16T12:05:54;1.02;;;0.90;;
12650;SDS011;6390;49.400;8.670;2023-05-16T12:08:21;2.03;;;0.77;;
12650;SDS011;6390;49.400;8.670;2023-05-16T12:10:51;2.58;;;1.10;;
12650;SDS011;6390;49.400;8.670;2023-05-16T12:13:18;1.90;;;0.90;;
12650;SDS011;6390;49.400;8.670;2023-05-16T12:15:47;1.85;;;0.90;;
12650;SDS011;6390;49.400;8.670;2023-05-16T12:18:14;2.67;;;0.90;;
12650;SDS011;6390;49.400;8.670;2023-05-16T12:20:42;1.10;;;0.85;;
12650;SDS011;6390;49.400;8.670;2023-05-16T12:23:12;2.03;;;1.17;;
12650;SDS011;6390;49.400;8.670;2023-05-16T12:25:39;1.33;;;0.80;;
12650;SDS011;6390;49.400;8.670;2023-05-16T12:28:11;2.10;;;0.90;;
12650;SDS011;6390;49.400;8.670;2023-05-16T12:30:39;2.80;;;0.95;;
12650;SDS011;6390;49.400;8.670;2023-05-16T12:33:07;2.85;;;1.25;;
12650;SDS011;6390;49.400;8.670;2023-05-16T12:35:39;1.70;;;0.90;;
12650;SDS011;6390;49.400;8.670;2023-05-16T12:38:08;1.55;;;1.05;;
12650;SDS011;6390;49.400;8.670;2023-05-16T12:40:36;2.10;;;1.00;;
12650;SDS011;6390;49.400;8.670;2023-05-16T12:43:19;1.52;;;0.93;;
12650;SDS011;6390;49.400;8.670;2023-05-16T12:45:50;2.38;;;1.20;;
12650;SDS011;6390;49.400;8.670;2023-05-16T12:48:16;1.85;;;0.80;;
12650;SDS011;6390;49.400;8.670;2023-05-16T12:50:43;2.63;;;1.25;;
12650;SDS011;6390;49.400;8.670;2023-05-16T12:53:12;1.25;;;0.73;;
12650;SDS011;6390;49.400;8.670;2023-05-16T12:55:41;1.48;;;0.82;;
12650;SDS011;6390;49.400;8.670;2023-05-16T12:58:09;1.83;;;0.82;;
12650;SDS011;6390;49.400;8.670;2023-05-16T13:00:36;1.13;;;1.02;;
12650;SDS011;6390;49.400;8.670;2023-05-16T13:03:03;1.33;;;1.05;;
12650;SDS011;6390;49.400;8.670;2023-05-16T13:05:31;1.25;;;0.85;;
12650;SDS011;6390;49.400;8.670;2023-05-16T13:07:57;2.95;;;1.00;;
12650;SDS011;6390;49.400;8.670;2023-05-16T13:10:23;2.10;;;0.95;;
12650;SDS011;6390;49.400;8.670;2023-05-16T13:12:50;1.20;;;0.77;;
12650;SDS011;6390;49.400;8.670;2023-05-16T13:15:17;1.48;;;0.90;;
12650;SDS011;6390;49.400;8.670;2023-05-16T13:17:43;2.92;;;1.10;;
12650;SDS011;6390;49.400;8.670;2023-05-16T13:20:10;1.33;;;0.80;;
12650;SDS011;6390;49.400;8.670;2023-05-16T13:22:38;3.10;;;0.80;;
12650;SDS011;6390;49.400;8.670;2023-05-16T13:25:06;1.23;;;0.82;;
12650;SDS011;6390;49.400;8.670;2023-05-16T13:27:33;2.13;;;0.88;;
12650;SDS011;6390;49.400;8.670;2023-05-16T13:29:59;1.30;;;0.80;;
12650;SDS011;6390;49.400;8.670;2023-05-16T13:32:26;1.10;;;1.00;;
12650;SDS011;6390;49.400;8.670;2023-05-16T13:34:52;1.35;;;0.73;;
12650;SDS011;6390;49.400;8.670;2023-05-16T13:37:18;1.80;;;1.30;;
12650;SDS011;6390;49.400;8.670;2023-05-16T13:39:44;2.03;;;1.10;;
12650;SDS011;6390;49.400;8.670;2023-05-16T13:42:10;1.65;;;0.85;;
12650;SDS011;6390;49.400;8.670;2023-05-16T13:44:36;1.80;;;0.88;;
12650;SDS011;6390;49.400;8.670;2023-05-16T13:47:03;1.45;;;0.80;;
12650;SDS011;6390;49.400;8.670;2023-05-16T13:49:29;1.67;;;0.90;;
12650;SDS011;6390;49.400;8.670;2023-05-16T13:51:55;1.60;;;0.80;;
12650;SDS011;6390;49.400;8.670;2023-05-16T13:54:22;1.90;;;0.95;;
12650;SDS011;6390;49.400;8.670;2023-05-16T13:56:48;2.78;;;1.00;;
12650;SDS011;6390;49.400;8.670;2023-05-16T13:59:14;2.90;;;1.20;;
12650;SDS011;6390;49.400;8.670;2023-05-16T14:01:40;1.02;;;0.90;;
12650;SDS011;6390;49.400;8.670;2023-05-16T14:04:06;2.58;;;0.93;;
12650;SDS011;6390;49.400;8.670;2023-05-16T14:06:33;2.13;;;0.88;;
12650;SDS011;6390;49.400;8.670;2023-05-16T14:08:59;1.45;;;0.85;;
12650;SDS011;6390;49.400;8.670;2023-05-16T14:11:25;1.45;;;0.90;;
12650;SDS011;6390;49.400;8.670;2023-05-16T14:13:54;1.35;;;0.98;;
12650;SDS011;6390;49.400;8.670;2023-05-16T14:16:21;2.15;;;0.82;;
12650;SDS011;6390;49.400;8.670;2023-05-16T14:18:47;1.60;;;0.95;;
12650;SDS011;6390;49.400;8.670;2023-05-16T14:21:14;0.75;;;0.70;;
12650;SDS011;6390;49.400;8.670;2023-05-16T14:23:40;2.10;;;0.70;;
12650;SDS011;6390;49.400;8.670;2023-05-16T14:26:06;3.22;;;0.98;;
12650;SDS011;6390;49.400;8.670;2023-05-16T14:28:32;1.52;;;0.80;;
12650;SDS011;6390;49.400;8.670;2023-05-16T14:30:59;0.93;;;0.60;;
12650;SDS011;6390;49.400;8.670;2023-05-16T14:33:26;1.17;;;0.68;;
12650;SDS011;6390;49.400;8.670;2023-05-16T14:35:52;1.17;;;0.95;;
12650;SDS011;6390;49.400;8.670;2023-05-16T14:38:18;1.00;;;0.90;;
12650;SDS011;6390;49.400;8.670;2023-05-16T14:40:45;2.25;;;0.90;;
12650;SDS011;6390;49.400;8.670;2023-05-16T14:43:11;2.17;;;1.02;;
12650;SDS011;6390;49.400;8.670;2023-05-16T14:45:37;2.58;;;0.98;;
12650;SDS011;6390;49.400;8.670;2023-05-16T14:48:03;1.42;;;0.77;;
12650;SDS011;6390;49.400;8.670;2023-05-16T14:50:31;2.15;;;0.80;;
12650;SDS011;6390;49.400;8.670;2023-05-16T14:52:57;1.48;;;0.90;;
12650;SDS011;6390;49.400;8.670;2023-05-16T14:55:23;1.35;;;0.75;;
12650;SDS011;6390;49.400;8.670;2023-05-16T14:57:49;1.60;;;0.82;;
12650;SDS011;6390;49.400;8.670;2023-05-16T15:00:15;1.00;;;0.70;;
12650;SDS011;6390;49.400;8.670;2023-05-16T15:02:45;1.20;;;0.80;;
12650;SDS011;6390;49.400;8.670;2023-05-16T15:05:11;2.38;;;0.90;;
12650;SDS011;6390;49.400;8.670;2023-05-16T15:07:37;0.65;;;0.55;;
12650;SDS011;6390;49.400;8.670;2023-05-16T15:10:03;1.15;;;0.80;;
12650;SDS011;6390;49.400;8.670;2023-05-16T15:12:30;1.60;;;0.82;;
12650;SDS011;6390;49.400;8.670;2023-05-16T15:14:56;2.40;;;0.80;;
12650;SDS011;6390;49.400;8.670;2023-05-16T15:17:23;0.90;;;0.75;;